Orbital elements of PSLV DEB
| Launched | 21 October 2001 |
| Flight ended | – |
| Launch site | Satish Dhawan Space Centre, India (Formerly Sriharikota Launching Range) |
| Owner | India |
| NORAD ID | 27160 |
| Date fetched |
Epoch osculation |
Inc. [°] |
Ecc. | RA asc node [hr] |
Arg Peri. [°] |
Mean anom [°] |
Mean motion [rev/day] |
Abs. mag |
| Date fetched |
Epoch osculation |
Inc. [°] |
Ecc. | RA asc node [hr] |
Arg Peri. [°] |
Mean anom [°] |
Mean motion [rev/day] |
Abs. mag |
| 2026 May 01 17:56 | 2026 Apr 30 14:11:10 | 98.3634 | 0.00466 | 10.4200 | 43.0376 | 107.9296 | 14.70627 | – |
| 2026 Apr 30 17:56 | 2026 Apr 30 14:11:10 | 98.3634 | 0.00466 | 10.4200 | 43.0376 | 107.9296 | 14.70627 | – |
| 2026 Apr 29 17:57 | 2026 Apr 24 01:00:33 | 98.3646 | 0.00469 | 9.9721 | 63.2687 | 107.9296 | 14.70627 | – |
| 2026 Apr 28 17:56 | 2026 Apr 24 01:00:33 | 98.3646 | 0.00469 | 9.9721 | 63.2687 | 107.9296 | 14.70627 | – |
| 2026 Apr 27 17:58 | 2026 Apr 24 01:00:33 | 98.3646 | 0.00469 | 9.9721 | 63.2687 | 107.9296 | 14.70627 | – |
| 2026 Apr 26 17:58 | 2026 Apr 24 01:00:33 | 98.3646 | 0.00469 | 9.9721 | 63.2687 | 107.9296 | 14.70627 | – |
| 2026 Apr 25 17:58 | 2026 Apr 24 01:00:33 | 98.3646 | 0.00469 | 9.9721 | 63.2687 | 107.9296 | 14.70627 | – |
| 2026 Apr 24 17:59 | 2026 Apr 24 01:00:33 | 98.3646 | 0.00469 | 9.9721 | 63.2687 | 107.9296 | 14.70627 | – |
| 2026 Apr 23 17:57 | 2026 Apr 19 08:21:42 | 98.3654 | 0.00471 | 9.6510 | 77.7014 | 107.9296 | 14.70627 | – |
| 2026 Apr 22 17:57 | 2026 Apr 19 08:21:42 | 98.3654 | 0.00471 | 9.6510 | 77.7014 | 107.9296 | 14.70627 | – |
| 2026 Apr 21 17:57 | 2026 Apr 19 08:21:42 | 98.3654 | 0.00471 | 9.6510 | 77.7014 | 107.9296 | 14.70627 | – |
| 2026 Apr 20 17:57 | 2026 Apr 19 08:21:42 | 98.3654 | 0.00471 | 9.6510 | 77.7014 | 107.9296 | 14.70627 | – |
| 2026 Apr 19 17:58 | 2026 Apr 19 08:21:42 | 98.3654 | 0.00471 | 9.6510 | 77.7014 | 107.9296 | 14.70627 | – |
| 2026 Apr 18 17:56 | 2026 Apr 13 01:57:10 | 98.3663 | 0.00471 | 9.2222 | 96.9397 | 107.9296 | 14.70627 | – |
| 2026 Apr 16 17:57 | 2026 Apr 13 01:57:10 | 98.3663 | 0.00471 | 9.2222 | 96.9397 | 107.9296 | 14.70627 | – |
| 2026 Apr 14 17:57 | 2026 Apr 13 01:57:10 | 98.3663 | 0.00471 | 9.2222 | 96.9397 | 107.9296 | 14.70627 | – |
| 2026 Apr 13 17:57 | 2026 Apr 13 01:57:10 | 98.3663 | 0.00471 | 9.2222 | 96.9397 | 107.9296 | 14.70627 | – |
| 2026 Apr 12 17:57 | 2026 Apr 08 09:14:02 | 98.3671 | 0.00470 | 8.9009 | 111.3551 | 107.9296 | 14.70627 | – |
| 2026 Apr 11 17:57 | 2026 Apr 08 09:14:02 | 98.3671 | 0.00470 | 8.9009 | 111.3551 | 107.9296 | 14.70627 | – |
| 2026 Apr 10 17:58 | 2026 Apr 08 09:14:02 | 98.3671 | 0.00470 | 8.9009 | 111.3551 | 107.9296 | 14.70627 | – |
| 2026 Apr 09 18:01 | 2026 Apr 08 09:14:02 | 98.3671 | 0.00470 | 8.9009 | 111.3551 | 107.9296 | 14.70627 | – |
| 2026 Apr 08 17:57 | 2026 Apr 08 09:14:02 | 98.3671 | 0.00470 | 8.9009 | 111.3551 | 107.9296 | 14.70627 | – |
| 2026 Apr 07 17:57 | 2026 Apr 02 01:25:57 | 98.3679 | 0.00468 | 8.4680 | 130.8608 | 107.9296 | 14.70627 | – |
| 2026 Apr 06 17:57 | 2026 Apr 02 01:25:57 | 98.3679 | 0.00468 | 8.4680 | 130.8608 | 107.9296 | 14.70627 | – |
| 2026 Apr 05 17:56 | 2026 Apr 02 01:25:57 | 98.3679 | 0.00468 | 8.4680 | 130.8608 | 107.9296 | 14.70627 | – |
| 2026 Apr 04 17:57 | 2026 Apr 02 01:25:57 | 98.3679 | 0.00468 | 8.4680 | 130.8608 | 107.9296 | 14.70627 | – |